Time;durP1;ratioP1;P1;durP2;ratioP2;P2;SDS_P1;SDS_P2;PMS_P1;PMS_P2;Temp;Humidity;BMP_temperature;BMP_pressure;BME280_temperature;BME280_humidity;BME280_pressure;Samples;Min_cycle;Max_cycle;Signal;HPM_P1;HPM_P2
2021/12/08 00:01:13;;;;;;;3.28;1.50;;;;;;;;;;5005068;28;20057;-70
2021/12/08 00:03:38;;;;;;;1.85;1.00;;;;;;;;;;5022878;28;20034;-70
2021/12/08 00:06:05;;;;;;;0.80;0.80;;;;;;;;;;5022624;28;20030;-70
2021/12/08 00:08:33;;;;;;;1.48;1.02;;;;;;;;;;5004500;28;20041;-72
2021/12/08 00:13:31;;;;;;;1.92;0.95;;;;;;;;;;5022618;28;20029;-70
2021/12/08 00:15:59;;;;;;;1.73;1.10;;;;;;;;;;5005049;28;20030;-70
2021/12/08 00:18:28;;;;;;;3.08;1.10;;;;;;;;;;5022651;28;20084;-69
2021/12/08 00:20:59;;;;;;;1.70;1.08;;;;;;;;;;5022523;28;20025;-71
2021/12/08 00:23:26;;;;;;;1.30;0.98;;;;;;;;;;5004970;28;20030;-70
2021/12/08 00:25:52;;;;;;;1.42;1.00;;;;;;;;;;5022543;28;20022;-70
2021/12/08 00:28:18;;;;;;;2.20;1.25;;;;;;;;;;5022733;28;20018;-70
2021/12/08 00:30:47;;;;;;;1.55;1.00;;;;;;;;;;5022512;28;20037;-70
2021/12/08 00:33:14;;;;;;;2.10;1.10;;;;;;;;;;5024462;28;20064;-69
2021/12/08 00:35:45;;;;;;;1.63;1.00;;;;;;;;;;5025581;28;20105;-71
2021/12/08 00:38:11;;;;;;;1.50;1.00;;;;;;;;;;5024759;28;20518;-70
2021/12/08 00:40:36;;;;;;;1.80;1.17;;;;;;;;;;5007632;28;20040;-70
2021/12/08 00:43:03;;;;;;;1.27;1.00;;;;;;;;;;5024700;28;20033;-70
2021/12/08 00:45:29;;;;;;;1.30;1.02;;;;;;;;;;5025686;28;20026;-70
2021/12/08 00:47:56;;;;;;;1.25;1.00;;;;;;;;;;5025089;28;20046;-69
2021/12/08 00:50:25;;;;;;;2.08;1.15;;;;;;;;;;5025227;28;20030;-71
2021/12/08 00:52:51;;;;;;;1.67;1.00;;;;;;;;;;5024972;28;20028;-69
2021/12/08 00:55:18;;;;;;;1.90;1.27;;;;;;;;;;5025130;28;20493;-71
2021/12/08 00:57:44;;;;;;;2.08;1.27;;;;;;;;;;5024703;28;20033;-70
2021/12/08 01:00:17;;;;;;;1.58;1.15;;;;;;;;;;5024871;28;20033;-71
2021/12/08 01:02:43;;;;;;;2.97;1.50;;;;;;;;;;5024743;28;20022;-69
2021/12/08 01:05:11;;;;;;;1.85;1.10;;;;;;;;;;5007116;28;20033;-71
2021/12/08 01:07:37;;;;;;;2.25;1.10;;;;;;;;;;5024765;28;20034;-70
2021/12/08 01:10:09;;;;;;;1.92;1.10;;;;;;;;;;5025098;28;20493;-70
2021/12/08 01:12:35;;;;;;;1.73;1.20;;;;;;;;;;5024731;28;20116;-69
2021/12/08 01:15:01;;;;;;;2.40;1.27;;;;;;;;;;5024686;28;20116;-70
2021/12/08 01:17:26;;;;;;;2.50;1.60;;;;;;;;;;5024310;28;20033;-70
2021/12/08 01:19:51;;;;;;;3.17;1.70;;;;;;;;;;5024459;28;20056;-70
2021/12/08 01:22:17;;;;;;;2.92;1.35;;;;;;;;;;5024525;28;20342;-71
2021/12/08 01:24:43;;;;;;;1.38;1.00;;;;;;;;;;5024622;28;20049;-71
2021/12/08 01:27:08;;;;;;;1.90;1.38;;;;;;;;;;5024389;28;20030;-69
2021/12/08 01:29:34;;;;;;;1.55;1.20;;;;;;;;;;5024277;28;20032;-70
2021/12/08 01:32:00;;;;;;;1.30;1.02;;;;;;;;;;5006633;28;20038;-69
2021/12/08 01:34:25;;;;;;;1.95;1.27;;;;;;;;;;5024189;28;20042;-71
2021/12/08 01:36:51;;;;;;;2.08;1.30;;;;;;;;;;5024261;28;20077;-70
2021/12/08 01:39:16;;;;;;;2.70;1.58;;;;;;;;;;5024195;28;20367;-69
2021/12/08 01:41:42;;;;;;;2.20;1.30;;;;;;;;;;5023951;28;20595;-71
2021/12/08 01:46:53;;;;;;;3.13;1.48;;;;;;;;;;5024212;28;20057;-71
2021/12/08 01:49:19;;;;;;;1.92;1.30;;;;;;;;;;5023622;28;20133;-70
2021/12/08 01:51:44;;;;;;;1.83;1.13;;;;;;;;;;5023986;28;20033;-70
2021/12/08 01:54:10;;;;;;;2.47;1.40;;;;;;;;;;5006152;28;20029;-70
2021/12/08 01:56:36;;;;;;;2.97;1.40;;;;;;;;;;5005965;28;20068;-71
2021/12/08 01:59:05;;;;;;;2.35;1.33;;;;;;;;;;5023693;28;20056;-70
2021/12/08 02:01:33;;;;;;;2.38;1.55;;;;;;;;;;5023480;28;20116;-71
2021/12/08 02:04:04;;;;;;;2.42;1.45;;;;;;;;;;5023609;28;20050;-71
2021/12/08 02:06:41;;;;;;;2.67;1.52;;;;;;;;;;5005927;28;20061;-70
2021/12/08 02:09:10;;;;;;;2.78;1.50;;;;;;;;;;5023422;28;20038;-71
2021/12/08 02:11:40;;;;;;;3.85;1.60;;;;;;;;;;5005295;28;20030;-72
2021/12/08 02:14:06;;;;;;;2.35;1.50;;;;;;;;;;5005701;28;20105;-71
2021/12/08 02:16:32;;;;;;;2.10;1.30;;;;;;;;;;5023635;28;20034;-70
2021/12/08 02:18:59;;;;;;;2.58;1.70;;;;;;;;;;5023445;28;20026;-71
2021/12/08 02:21:27;;;;;;;2.80;1.60;;;;;;;;;;5005565;28;20026;-70
2021/12/08 02:23:55;;;;;;;1.70;1.35;;;;;;;;;;5023415;28;20034;-71
2021/12/08 02:26:21;;;;;;;2.33;1.40;;;;;;;;;;5023440;28;20030;-73
2021/12/08 02:28:47;;;;;;;2.45;1.50;;;;;;;;;;5022596;28;20026;-70
2021/12/08 02:31:16;;;;;;;1.92;1.30;;;;;;;;;;5023154;28;20026;-70
2021/12/08 02:49:58;;;;;;;2.78;1.30;;;;;;;;;;5022857;28;20076;-71
2021/12/08 02:52:24;;;;;;;3.03;1.27;;;;;;;;;;5022720;28;20490;-73
2021/12/08 02:54:51;;;;;;;1.98;1.08;;;;;;;;;;5004857;28;20049;-71
2021/12/08 02:57:23;;;;;;;2.38;1.00;;;;;;;;;;5022591;28;20033;-71
2021/12/08 02:59:49;;;;;;;2.47;1.08;;;;;;;;;;5023023;28;20115;-71
2021/12/08 03:02:15;;;;;;;1.67;1.10;;;;;;;;;;5022830;28;20440;-73
2021/12/08 03:04:41;;;;;;;1.83;0.90;;;;;;;;;;5022664;28;20032;-73
2021/12/08 03:07:07;;;;;;;1.50;1.00;;;;;;;;;;5004799;28;20034;-69
2021/12/08 03:09:33;;;;;;;1.20;0.88;;;;;;;;;;5022365;28;20040;-71
2021/12/08 03:12:00;;;;;;;1.60;0.90;;;;;;;;;;5022776;28;20061;-71
2021/12/08 03:14:28;;;;;;;2.00;1.10;;;;;;;;;;5022550;28;20068;-73
2021/12/08 03:16:58;;;;;;;2.20;1.10;;;;;;;;;;5004684;28;20560;-71
2021/12/08 03:19:25;;;;;;;2.60;1.00;;;;;;;;;;5022081;28;20065;-71
2021/12/08 03:21:52;;;;;;;1.40;0.95;;;;;;;;;;5022746;28;20034;-70
2021/12/08 03:29:33;;;;;;;1.00;0.90;;;;;;;;;;5021996;28;20117;-70
2021/12/08 03:32:06;;;;;;;1.80;1.05;;;;;;;;;;5004710;28;20061;-71
2021/12/08 03:34:36;;;;;;;1.90;1.00;;;;;;;;;;5021950;28;20033;-72
2021/12/08 03:37:03;;;;;;;1.25;0.90;;;;;;;;;;5022367;28;20042;-71
2021/12/08 03:39:29;;;;;;;1.80;1.00;;;;;;;;;;5004394;28;20038;-72
2021/12/08 03:41:54;;;;;;;0.95;0.80;;;;;;;;;;5022510;28;20033;-72
2021/12/08 03:44:20;;;;;;;2.22;1.02;;;;;;;;;;5004259;28;20018;-71
2021/12/08 03:46:45;;;;;;;2.15;0.90;;;;;;;;;;5021944;28;20026;-73
2021/12/08 03:49:17;;;;;;;1.42;1.02;;;;;;;;;;5022253;28;20089;-70
2021/12/08 03:51:43;;;;;;;0.95;0.68;;;;;;;;;;5022459;28;20022;-70
2021/12/08 03:54:10;;;;;;;1.58;1.00;;;;;;;;;;5022407;28;20045;-72
2021/12/08 03:56:35;;;;;;;1.60;0.98;;;;;;;;;;5022428;28;20040;-71
2021/12/08 03:59:03;;;;;;;1.45;0.80;;;;;;;;;;5022126;28;20109;-72
2021/12/08 04:01:28;;;;;;;1.98;0.77;;;;;;;;;;5022309;28;20026;-70
2021/12/08 04:04:00;;;;;;;1.20;0.80;;;;;;;;;;5022512;28;20552;-72
2021/12/08 04:06:32;;;;;;;2.47;0.90;;;;;;;;;;5023060;28;20121;-71
2021/12/08 04:09:02;;;;;;;2.22;1.10;;;;;;;;;;5025506;28;20033;-71
2021/12/08 04:11:27;;;;;;;1.30;0.80;;;;;;;;;;5026018;28;20018;-71
2021/12/08 04:14:06;;;;;;;2.05;0.95;;;;;;;;;;5025720;28;20065;-72
2021/12/08 04:16:39;;;;;;;3.42;0.85;;;;;;;;;;5025870;28;20060;-72
2021/12/08 04:19:07;;;;;;;3.60;1.00;;;;;;;;;;5025301;28;20049;-70
2021/12/08 04:21:34;;;;;;;1.48;0.80;;;;;;;;;;5025905;28;20029;-70
2021/12/08 04:23:59;;;;;;;2.75;1.00;;;;;;;;;;5025626;28;20030;-69
2021/12/08 04:26:30;;;;;;;2.17;0.90;;;;;;;;;;5025610;28;20064;-71
2021/12/08 04:28:56;;;;;;;1.58;0.90;;;;;;;;;;5007760;28;20034;-71
2021/12/08 04:31:34;;;;;;;0.95;0.80;;;;;;;;;;5025824;28;20049;-71
2021/12/08 04:34:03;;;;;;;1.00;0.80;;;;;;;;;;5025458;28;20033;-72
2021/12/08 04:36:41;;;;;;;1.92;0.80;;;;;;;;;;5025741;28;20062;-71
2021/12/08 04:39:13;;;;;;;1.95;0.80;;;;;;;;;;5007697;28;20092;-71
2021/12/08 04:41:44;;;;;;;1.65;0.98;;;;;;;;;;5007624;28;20060;-71
2021/12/08 04:44:38;;;;;;;2.42;1.00;;;;;;;;;;5025349;28;20022;-72
2021/12/08 04:50:11;;;;;;;1.58;0.85;;;;;;;;;;5025155;28;20022;-71
2021/12/08 05:01:11;;;;;;;1.48;0.90;;;;;;;;;;5024889;28;20028;-72
2021/12/08 05:08:54;;;;;;;2.50;1.02;;;;;;;;;;5024427;28;20466;-71
2021/12/08 05:11:27;;;;;;;1.83;0.93;;;;;;;;;;5024472;28;20025;-71
2021/12/08 05:13:57;;;;;;;1.40;0.93;;;;;;;;;;5023708;28;20072;-73
2021/12/08 05:16:24;;;;;;;1.88;1.00;;;;;;;;;;5023688;28;20048;-72
2021/12/08 05:18:54;;;;;;;1.73;1.08;;;;;;;;;;5023801;28;20045;-71
2021/12/08 05:21:38;;;;;;;2.60;1.02;;;;;;;;;;5025162;28;20592;-70
2021/12/08 05:24:20;;;;;;;1.58;0.90;;;;;;;;;;5006823;28;20088;-70
2021/12/08 05:26:51;;;;;;;2.90;0.88;;;;;;;;;;5024639;28;20053;-71
2021/12/08 05:29:30;;;;;;;2.05;0.80;;;;;;;;;;5024847;28;20347;-70
2021/12/08 05:31:57;;;;;;;1.45;0.90;;;;;;;;;;5024541;28;20022;-70
2021/12/08 05:34:23;;;;;;;1.17;0.85;;;;;;;;;;5023879;28;20029;-71
2021/12/08 05:36:49;;;;;;;1.80;1.00;;;;;;;;;;5006559;28;20022;-72
2021/12/08 05:39:20;;;;;;;1.92;0.88;;;;;;;;;;5006148;28;20464;-72
2021/12/08 05:41:47;;;;;;;1.35;0.80;;;;;;;;;;5024212;28;20064;-73
2021/12/08 05:44:13;;;;;;;2.13;1.30;;;;;;;;;;5024395;28;20110;-71
2021/12/08 05:46:42;;;;;;;1.80;0.77;;;;;;;;;;5006441;28;20036;-71
2021/12/08 05:49:12;;;;;;;3.85;0.90;;;;;;;;;;5005926;28;20030;-71
2021/12/08 05:51:39;;;;;;;1.48;0.70;;;;;;;;;;5006298;28;20029;-72
2021/12/08 05:54:18;;;;;;;1.58;1.20;;;;;;;;;;5023893;28;20026;-70
2021/12/08 05:56:46;;;;;;;2.50;1.05;;;;;;;;;;5024113;28;20029;-71
2021/12/08 05:59:13;;;;;;;2.28;1.05;;;;;;;;;;5024114;28;20026;-72
2021/12/08 06:02:03;;;;;;;1.73;0.82;;;;;;;;;;5023985;28;20040;-71
2021/12/08 06:04:31;;;;;;;1.58;1.10;;;;;;;;;;5005965;28;20036;-73
2021/12/08 06:06:58;;;;;;;1.55;1.00;;;;;;;;;;5023695;28;20081;-72
2021/12/08 06:09:28;;;;;;;2.38;0.90;;;;;;;;;;5023613;28;20064;-72
2021/12/08 06:11:54;;;;;;;2.08;1.20;;;;;;;;;;5021144;28;20038;-70
2021/12/08 06:14:24;;;;;;;1.50;0.90;;;;;;;;;;5023429;28;20030;-72
2021/12/08 06:16:51;;;;;;;3.35;0.82;;;;;;;;;;5023927;28;20030;-72
2021/12/08 06:19:19;;;;;;;1.20;0.82;;;;;;;;;;5023503;28;20041;-71
2021/12/08 06:21:46;;;;;;;2.22;1.10;;;;;;;;;;5023508;28;20030;-71
2021/12/08 06:24:14;;;;;;;1.67;1.10;;;;;;;;;;5023856;28;20040;-70
2021/12/08 06:26:43;;;;;;;1.48;0.90;;;;;;;;;;5023568;28;20037;-71
2021/12/08 06:29:11;;;;;;;2.38;0.70;;;;;;;;;;5023007;28;20026;-71
2021/12/08 06:31:38;;;;;;;0.73;0.63;;;;;;;;;;5005160;28;20686;-71
2021/12/08 06:34:04;;;;;;;1.33;1.05;;;;;;;;;;5024027;28;20410;-73
2021/12/08 06:36:49;;;;;;;2.92;0.88;;;;;;;;;;5024406;28;20037;-72
2021/12/08 06:39:25;;;;;;;1.80;1.00;;;;;;;;;;5006298;28;20573;-72
2021/12/08 06:41:55;;;;;;;1.30;0.82;;;;;;;;;;5024653;28;20030;-69
2021/12/08 06:44:28;;;;;;;3.85;1.20;;;;;;;;;;5024286;28;20033;-72
2021/12/08 06:46:56;;;;;;;1.00;0.85;;;;;;;;;;5024290;28;20360;-71
2021/12/08 06:49:22;;;;;;;4.75;1.10;;;;;;;;;;5006209;28;20025;-70
2021/12/08 06:51:55;;;;;;;1.38;0.90;;;;;;;;;;5024171;28;20445;-72
2021/12/08 06:54:27;;;;;;;2.30;0.85;;;;;;;;;;5023969;28;20066;-70
2021/12/08 06:56:57;;;;;;;1.60;1.00;;;;;;;;;;5024157;28;20026;-70
2021/12/08 06:59:30;;;;;;;3.30;0.70;;;;;;;;;;5024122;28;20026;-70
2021/12/08 07:02:12;;;;;;;1.13;0.73;;;;;;;;;;5024249;28;20342;-72
2021/12/08 07:07:30;;;;;;;3.35;1.00;;;;;;;;;;5023590;28;20057;-70
2021/12/08 07:09:57;;;;;;;1.70;0.80;;;;;;;;;;5023683;28;20030;-72
2021/12/08 07:12:32;;;;;;;1.10;0.88;;;;;;;;;;5022794;28;20075;-72
2021/12/08 07:15:05;;;;;;;1.65;1.05;;;;;;;;;;5022848;28;20362;-70
2021/12/08 07:17:33;;;;;;;2.53;1.17;;;;;;;;;;5005234;28;20030;-71
2021/12/08 07:20:29;;;;;;;1.42;0.90;;;;;;;;;;5005078;28;20030;-72
2021/12/08 07:22:58;;;;;;;2.85;0.90;;;;;;;;;;5023025;28;20086;-72
2021/12/08 07:25:26;;;;;;;1.77;0.75;;;;;;;;;;5023557;28;20030;-73
2021/12/08 07:27:53;;;;;;;1.80;1.00;;;;;;;;;;5005286;28;20556;-72
2021/12/08 07:30:25;;;;;;;2.15;0.98;;;;;;;;;;5022806;28;20037;-71
2021/12/08 07:32:52;;;;;;;1.58;0.93;;;;;;;;;;5005573;28;20026;-73
2021/12/08 07:35:23;;;;;;;1.70;0.88;;;;;;;;;;5023437;28;20549;-70
2021/12/08 07:37:48;;;;;;;2.13;0.80;;;;;;;;;;5022985;28;20034;-71
2021/12/08 07:40:30;;;;;;;3.85;0.77;;;;;;;;;;5004849;28;20026;-73
2021/12/08 07:43:00;;;;;;;2.63;1.20;;;;;;;;;;5028891;28;20038;-70
2021/12/08 07:45:36;;;;;;;1.52;0.95;;;;;;;;;;5029018;28;20026;-71
2021/12/08 07:48:06;;;;;;;4.35;1.42;;;;;;;;;;5010617;28;20060;-75
2021/12/08 07:50:39;;;;;;;2.00;1.50;;;;;;;;;;5028385;28;20022;-73
2021/12/08 07:53:07;;;;;;;2.78;1.60;;;;;;;;;;5028654;28;20029;-71
2021/12/08 07:55:42;;;;;;;1.95;1.08;;;;;;;;;;5028957;28;20076;-72
2021/12/08 07:58:09;;;;;;;2.20;1.20;;;;;;;;;;5010170;28;20038;-73
2021/12/08 08:00:48;;;;;;;2.47;1.10;;;;;;;;;;5029336;28;20113;-72
2021/12/08 08:03:15;;;;;;;2.85;1.10;;;;;;;;;;5028700;28;20032;-72
2021/12/08 08:05:42;;;;;;;2.22;1.08;;;;;;;;;;5029656;28;20089;-74
2021/12/08 08:08:12;;;;;;;2.08;1.05;;;;;;;;;;5029651;28;20034;-73
2021/12/08 08:10:44;;;;;;;4.30;1.40;;;;;;;;;;5029668;28;20116;-73
2021/12/08 08:13:12;;;;;;;2.80;1.60;;;;;;;;;;5029297;28;20025;-72
2021/12/08 08:15:44;;;;;;;3.83;1.45;;;;;;;;;;5029520;28;20022;-71
2021/12/08 08:18:18;;;;;;;3.70;1.30;;;;;;;;;;5029449;28;20030;-72
2021/12/08 08:20:47;;;;;;;;;;;;;;;;;;5012303;28;20262;-71
2021/12/08 08:23:15;;;;;;;3.53;1.40;;;;;;;;;;5011777;28;19917;-71
2021/12/08 08:25:43;;;;;;;5.60;1.52;;;;;;;;;;5029484;28;20049;-69
2021/12/08 08:28:10;;;;;;;4.97;1.77;;;;;;;;;;5029187;28;20057;-72
2021/12/08 08:30:55;;;;;;;3.28;1.50;;;;;;;;;;5029658;28;20109;-71
2021/12/08 08:33:23;;;;;;;3.72;1.20;;;;;;;;;;5029505;28;20085;-71
2021/12/08 08:35:52;;;;;;;5.60;1.73;;;;;;;;;;5011815;28;20037;-69
2021/12/08 08:38:40;;;;;;;4.30;1.75;;;;;;;;;;5011625;28;20034;-70
2021/12/08 08:41:15;;;;;;;3.70;1.35;;;;;;;;;;5011967;28;20057;-70
2021/12/08 08:43:41;;;;;;;4.70;1.63;;;;;;;;;;5029173;28;20049;-70
2021/12/08 08:46:12;;;;;;;4.63;1.77;;;;;;;;;;5029460;28;20029;-74
2021/12/08 08:48:49;;;;;;;3.53;1.63;;;;;;;;;;5028871;28;20106;-71
2021/12/08 08:51:26;;;;;;;3.65;1.50;;;;;;;;;;5011479;28;20387;-71
2021/12/08 08:53:54;;;;;;;4.45;1.67;;;;;;;;;;5008478;28;20051;-73
2021/12/08 08:56:28;;;;;;;3.13;1.35;;;;;;;;;;5008625;28;20030;-69
2021/12/08 08:58:58;;;;;;;3.17;1.60;;;;;;;;;;5025817;28;20052;-70
2021/12/08 09:01:31;;;;;;;4.88;1.50;;;;;;;;;;5025928;28;20041;-70
2021/12/08 09:04:02;;;;;;;4.05;1.75;;;;;;;;;;5008434;28;20026;-73
2021/12/08 09:06:33;;;;;;;4.90;1.80;;;;;;;;;;5025941;28;20042;-74
2021/12/08 09:09:02;;;;;;;3.88;1.65;;;;;;;;;;5008103;28;20026;-72
2021/12/08 09:11:35;;;;;;;3.70;1.95;;;;;;;;;;5025854;28;20084;-71
2021/12/08 09:14:20;;;;;;;3.10;1.57;;;;;;;;;;5025820;28;20087;-70
2021/12/08 09:16:54;;;;;;;6.55;2.03;;;;;;;;;;5026159;28;20278;-69
2021/12/08 09:19:22;;;;;;;;;;;;;;;;;;5008544;28;20032;-70
2021/12/08 09:22:01;;;;;;;4.85;1.90;;;;;;;;;;5008101;28;20345;-70
2021/12/08 09:24:39;;;;;;;3.92;1.98;;;;;;;;;;5025586;28;20048;-72
2021/12/08 09:27:08;;;;;;;4.53;2.13;;;;;;;;;;5025731;28;20084;-71
2021/12/08 09:29:57;;;;;;;6.03;2.03;;;;;;;;;;5007509;28;20030;-70
2021/12/08 09:32:32;;;;;;;3.38;1.95;;;;;;;;;;5024987;28;20084;-72
2021/12/08 09:35:06;;;;;;;4.50;1.60;;;;;;;;;;5025345;28;20025;-73
2021/12/08 09:37:36;;;;;;;4.63;2.30;;;;;;;;;;5025101;28;20057;-71
2021/12/08 09:40:33;;;;;;;5.78;2.45;;;;;;;;;;5025358;28;20040;-71
2021/12/08 09:43:07;;;;;;;5.97;2.20;;;;;;;;;;5025171;28;20097;-72
2021/12/08 09:45:34;;;;;;;;;;;;;;;;;;5025987;28;20041;-72
2021/12/08 09:48:04;;;;;;;3.45;1.92;;;;;;;;;;5025100;28;19924;-73
2021/12/08 09:50:30;;;;;;;4.50;1.83;;;;;;;;;;5007643;28;20029;-71
2021/12/08 09:52:56;;;;;;;4.93;2.08;;;;;;;;;;5025200;28;20116;-70
2021/12/08 09:55:21;;;;;;;5.25;2.40;;;;;;;;;;5025306;28;20106;-71
2021/12/08 09:57:47;;;;;;;5.60;2.30;;;;;;;;;;5024942;28;20034;-71
2021/12/08 10:00:38;;;;;;;6.30;2.70;;;;;;;;;;5025057;28;20034;-72
2021/12/08 10:03:05;;;;;;;5.88;2.88;;;;;;;;;;5025056;28;20030;-71
2021/12/08 10:05:34;;;;;;;7.05;2.88;;;;;;;;;;5006131;28;20041;-74
2021/12/08 10:08:01;;;;;;;5.78;2.85;;;;;;;;;;5025151;28;20042;-71
2021/12/08 10:10:28;;;;;;;3.50;2.10;;;;;;;;;;5006891;28;20026;-73
2021/12/08 10:12:54;;;;;;;3.53;1.98;;;;;;;;;;5024756;28;20087;-71
2021/12/08 10:15:22;;;;;;;6.13;2.75;;;;;;;;;;5024560;28;20030;-71
2021/12/08 10:17:49;;;;;;;15.27;3.83;;;;;;;;;;5006647;28;20035;-70
2021/12/08 10:20:21;;;;;;;7.43;3.92;;;;;;;;;;5024735;28;20057;-71
2021/12/08 10:23:07;;;;;;;7.03;2.33;;;;;;;;;;5006596;28;20037;-70
2021/12/08 10:25:39;;;;;;;5.15;2.38;;;;;;;;;;5024341;28;20109;-70
2021/12/08 10:28:10;;;;;;;3.60;1.98;;;;;;;;;;5024442;28;20038;-72
2021/12/08 10:30:45;;;;;;;3.88;2.20;;;;;;;;;;5024281;28;20048;-74
2021/12/08 10:33:56;;;;;;;4.95;2.67;;;;;;;;;;5023366;28;20041;-71
2021/12/08 10:39:20;;;;;;;5.25;2.40;;;;;;;;;;5024467;28;20038;-72
2021/12/08 10:41:53;;;;;;;4.93;2.53;;;;;;;;;;5023736;28;20045;-74
2021/12/08 10:44:28;;;;;;;5.75;2.65;;;;;;;;;;5024071;28;20034;-70
2021/12/08 10:46:57;;;;;;;5.22;2.85;;;;;;;;;;5006337;28;20026;-71
2021/12/08 10:54:56;;;;;;;7.80;5.18;;;;;;;;;;5024013;28;20037;-72
2021/12/08 10:57:36;;;;;;;7.97;5.97;;;;;;;;;;5005886;28;20487;-70
2021/12/08 11:00:04;;;;;;;8.52;4.78;;;;;;;;;;5024172;28;20026;-70
2021/12/08 11:02:53;;;;;;;6.53;4.13;;;;;;;;;;5024072;28;20263;-71
2021/12/08 11:05:24;;;;;;;5.22;3.13;;;;;;;;;;5006368;28;20359;-71
2021/12/08 11:08:20;;;;;;;7.00;3.05;;;;;;;;;;5024217;28;20018;-71
2021/12/08 11:11:06;;;;;;;8.45;3.78;;;;;;;;;;5006545;28;20022;-71
2021/12/08 11:13:42;;;;;;;7.45;2.78;;;;;;;;;;5024193;28;20044;-71
2021/12/08 11:16:18;;;;;;;4.50;2.55;;;;;;;;;;5023864;28;20034;-71
2021/12/08 11:18:49;;;;;;;5.22;2.42;;;;;;;;;;5005955;28;20030;-71
2021/12/08 11:21:31;;;;;;;3.85;2.10;;;;;;;;;;5022982;28;20049;-71
2021/12/08 11:23:59;;;;;;;3.40;1.70;;;;;;;;;;5023636;28;20065;-71
2021/12/08 11:26:37;;;;;;;3.70;1.77;;;;;;;;;;5023655;28;20053;-71
2021/12/08 11:29:09;;;;;;;4.93;2.10;;;;;;;;;;5005630;28;20389;-73
2021/12/08 11:32:08;;;;;;;4.63;2.30;;;;;;;;;;5023516;28;20089;-72
2021/12/08 11:34:41;;;;;;;4.63;2.10;;;;;;;;;;5002577;28;20259;-70
2021/12/08 11:37:13;;;;;;;6.20;1.97;;;;;;;;;;5023100;28;20295;-71
2021/12/08 11:39:55;;;;;;;6.28;2.35;;;;;;;;;;5023225;28;20280;-72
2021/12/08 11:42:23;;;;;;;4.57;1.98;;;;;;;;;;5023184;28;20026;-72
2021/12/08 11:44:54;;;;;;;5.38;2.78;;;;;;;;;;5023188;28;20114;-71
2021/12/08 11:47:33;;;;;;;5.13;2.20;;;;;;;;;;5022137;28;20073;-73
2021/12/08 11:50:02;;;;;;;4.47;1.60;;;;;;;;;;5022548;28;20046;-70
2021/12/08 11:52:32;;;;;;;5.10;2.40;;;;;;;;;;5004479;28;20038;-72
2021/12/08 11:55:09;;;;;;;4.20;2.30;;;;;;;;;;5005223;28;20522;-73
2021/12/08 11:57:37;;;;;;;5.72;3.00;;;;;;;;;;5023330;28;20098;-71
2021/12/08 12:00:28;;;;;;;8.40;4.28;;;;;;;;;;5023114;28;20041;-72
2021/12/08 12:03:04;;;;;;;7.10;3.90;;;;;;;;;;5023028;28;20026;-71
2021/12/08 12:05:40;;;;;;;7.88;4.22;;;;;;;;;;5023139;28;20038;-73
2021/12/08 12:08:08;;;;;;;8.05;3.92;;;;;;;;;;5022763;28;20026;-71
2021/12/08 12:10:37;;;;;;;5.22;3.22;;;;;;;;;;5022920;28;20054;-74
2021/12/08 12:13:03;;;;;;;4.32;2.42;;;;;;;;;;5005279;28;20450;-74
2021/12/08 12:15:29;;;;;;;4.68;2.58;;;;;;;;;;5023155;28;20112;-72
2021/12/08 12:17:55;;;;;;;3.13;1.67;;;;;;;;;;5022932;28;20037;-71
2021/12/08 12:20:30;;;;;;;5.32;2.33;;;;;;;;;;5023517;28;20523;-71
2021/12/08 12:22:58;;;;;;;3.58;1.90;;;;;;;;;;5023422;28;20026;-71
2021/12/08 12:25:46;;;;;;;4.90;1.85;;;;;;;;;;5005420;28;20026;-73
2021/12/08 12:28:36;;;;;;;2.78;1.60;;;;;;;;;;5023667;28;20416;-73
2021/12/08 12:31:40;;;;;;;5.22;1.88;;;;;;;;;;5027089;28;20021;-72
2021/12/08 12:34:29;;;;;;;5.85;2.22;;;;;;;;;;5026830;28;20021;-72
2021/12/08 12:36:56;;;;;;;5.03;1.98;;;;;;;;;;5026711;28;20093;-73
2021/12/08 12:39:25;;;;;;;3.55;1.63;;;;;;;;;;5026390;28;20041;-72
2021/12/08 12:42:00;;;;;;;6.80;2.20;;;;;;;;;;5026543;28;20097;-73
2021/12/08 12:44:31;;;;;;;5.95;1.90;;;;;;;;;;5008760;28;20029;-72
2021/12/08 12:47:09;;;;;;;3.78;1.90;;;;;;;;;;5026719;28;20052;-71
2021/12/08 12:50:06;;;;;;;7.10;2.17;;;;;;;;;;5026545;28;20084;-72
2021/12/08 12:52:40;;;;;;;3.28;1.63;;;;;;;;;;5025657;28;20033;-72
2021/12/08 12:55:14;;;;;;;4.13;2.05;;;;;;;;;;5026431;28;20038;-72
2021/12/08 12:58:04;;;;;;;3.53;1.58;;;;;;;;;;5026211;28;20121;-72
2021/12/08 13:00:39;;;;;;;5.20;2.28;;;;;;;;;;5026443;28;20029;-73
2021/12/08 13:03:06;;;;;;;7.03;2.13;;;;;;;;;;5025872;28;20030;-73
2021/12/08 13:05:50;;;;;;;3.55;1.52;;;;;;;;;;5026188;28;20042;-73
2021/12/08 13:08:28;;;;;;;;;;;;;;;;;;5026426;28;20022;-72
2021/12/08 13:10:55;;;;;;;4.38;1.80;;;;;;;;;;5026236;28;19920;-70
2021/12/08 13:13:21;;;;;;;5.72;1.90;;;;;;;;;;5025723;28;20310;-71
2021/12/08 13:15:47;;;;;;;6.70;2.20;;;;;;;;;;5008332;28;20029;-72
2021/12/08 13:18:21;;;;;;;6.13;2.10;;;;;;;;;;5008086;28;20044;-70
2021/12/08 13:20:54;;;;;;;4.93;1.90;;;;;;;;;;5025920;28;20018;-72
2021/12/08 13:23:23;;;;;;;3.80;2.13;;;;;;;;;;5025644;28;20029;-72
2021/12/08 13:25:58;;;;;;;4.32;1.92;;;;;;;;;;5025907;28;20025;-71
2021/12/08 13:31:10;;;;;;;4.57;2.28;;;;;;;;;;5025868;28;20093;-71
2021/12/08 13:33:52;;;;;;;8.48;2.30;;;;;;;;;;5025774;28;20026;-71
2021/12/08 13:36:20;;;;;;;5.82;2.42;;;;;;;;;;5025588;28;20038;-73
2021/12/08 13:39:08;;;;;;;7.43;2.60;;;;;;;;;;5025357;28;20030;-72
2021/12/08 13:41:38;;;;;;;5.05;2.22;;;;;;;;;;5025709;28;20057;-72
2021/12/08 13:44:22;;;;;;;4.13;2.17;;;;;;;;;;5025029;28;20030;-71
2021/12/08 13:46:52;;;;;;;7.63;2.28;;;;;;;;;;5025423;28;20032;-71
2021/12/08 13:49:27;;;;;;;6.72;2.80;;;;;;;;;;5025122;28;20052;-72
2021/12/08 13:52:15;;;;;;;7.00;2.60;;;;;;;;;;5025660;28;20038;-71
2021/12/08 13:54:52;;;;;;;4.38;2.10;;;;;;;;;;5025359;28;20030;-72
2021/12/08 13:57:33;;;;;;;8.05;2.63;;;;;;;;;;5025330;28;20080;-71
2021/12/08 14:00:17;;;;;;;6.45;2.58;;;;;;;;;;5025377;28;20089;-70
2021/12/08 14:02:45;;;;;;;6.78;2.63;;;;;;;;;;5007438;28;20232;-71
2021/12/08 14:05:19;;;;;;;4.95;2.83;;;;;;;;;;5007568;28;20104;-72
2021/12/08 14:07:57;;;;;;;6.00;2.58;;;;;;;;;;5025138;28;20034;-70
2021/12/08 14:10:23;;;;;;;6.50;2.70;;;;;;;;;;5007132;28;20099;-72
2021/12/08 14:12:56;;;;;;;10.73;3.00;;;;;;;;;;5024929;28;20026;-70
2021/12/08 14:15:30;;;;;;;7.15;2.60;;;;;;;;;;5007370;28;20033;-73
2021/12/08 14:18:28;;;;;;;8.45;2.92;;;;;;;;;;5007041;28;20101;-72
2021/12/08 14:21:10;;;;;;;7.53;3.25;;;;;;;;;;5024906;28;20457;-71
2021/12/08 14:23:58;;;;;;;10.15;3.58;;;;;;;;;;5024440;28;20061;-72
2021/12/08 14:26:30;;;;;;;8.15;3.50;;;;;;;;;;5024142;28;20050;-72
2021/12/08 14:28:56;;;;;;;7.80;3.65;;;;;;;;;;5024512;28;20423;-71
2021/12/08 14:31:26;;;;;;;8.23;3.80;;;;;;;;;;5024935;28;20038;-71
2021/12/08 14:33:56;;;;;;;7.95;3.78;;;;;;;;;;5024369;28;20048;-72
2021/12/08 14:36:38;;;;;;;9.73;4.30;;;;;;;;;;5006916;28;20041;-73
2021/12/08 14:39:29;;;;;;;10.05;3.72;;;;;;;;;;5024182;28;20028;-71
2021/12/08 14:41:56;;;;;;;8.68;4.55;;;;;;;;;;5005758;28;20033;-72
2021/12/08 14:44:27;;;;;;;8.13;3.92;;;;;;;;;;5023947;28;20029;-71
2021/12/08 14:47:26;;;;;;;7.55;4.05;;;;;;;;;;5006452;28;20030;-71
2021/12/08 14:49:56;;;;;;;7.65;4.32;;;;;;;;;;5012986;28;20045;-72
2021/12/08 14:52:22;;;;;;;9.48;3.83;;;;;;;;;;5005578;28;20041;-72
2021/12/08 14:54:51;;;;;;;11.10;3.90;;;;;;;;;;5006618;28;20025;-71
2021/12/08 14:57:28;;;;;;;7.60;4.13;;;;;;;;;;5006727;28;20117;-72
2021/12/08 15:00:15;;;;;;;8.27;4.00;;;;;;;;;;5023934;28;20036;-71
2021/12/08 15:02:44;;;;;;;8.10;3.78;;;;;;;;;;5023721;28;20026;-72
2021/12/08 15:05:11;;;;;;;10.80;4.05;;;;;;;;;;5024312;28;20110;-70
2021/12/08 15:07:39;;;;;;;9.88;3.97;;;;;;;;;;5023930;28;20052;-71
2021/12/08 15:10:06;;;;;;;6.18;3.47;;;;;;;;;;5006444;28;20026;-72
2021/12/08 15:12:33;;;;;;;6.25;3.67;;;;;;;;;;5023807;28;20030;-72
2021/12/08 15:14:59;;;;;;;8.23;3.75;;;;;;;;;;5023735;28;20038;-71
2021/12/08 15:17:29;;;;;;;8.18;3.88;;;;;;;;;;5006072;28;20033;-72
2021/12/08 15:19:55;;;;;;;7.38;3.63;;;;;;;;;;5023878;28;20060;-73
2021/12/08 15:22:27;;;;;;;7.07;3.80;;;;;;;;;;5005667;28;20041;-72
2021/12/08 15:25:10;;;;;;;7.70;3.67;;;;;;;;;;5005920;28;20651;-71
2021/12/08 15:27:38;;;;;;;5.40;3.28;;;;;;;;;;5005959;28;20034;-73
2021/12/08 15:30:08;;;;;;;9.77;4.53;;;;;;;;;;5023453;28;20121;-72
2021/12/08 15:32:34;;;;;;;7.50;3.38;;;;;;;;;;5023119;28;20091;-71
2021/12/08 15:35:12;;;;;;;6.63;3.22;;;;;;;;;;5023472;28;20542;-72
2021/12/08 15:37:54;;;;;;;7.30;3.05;;;;;;;;;;5005706;28;20033;-72
2021/12/08 15:40:26;;;;;;;5.75;2.83;;;;;;;;;;5005788;28;20533;-70
2021/12/08 15:43:03;;;;;;;5.35;2.72;;;;;;;;;;5005697;28;20058;-71
2021/12/08 15:45:34;;;;;;;7.28;3.38;;;;;;;;;;5023444;28;20049;-70
2021/12/08 15:47:59;;;;;;;7.50;3.53;;;;;;;;;;5003032;28;20053;-73
2021/12/08 15:50:32;;;;;;;7.90;3.33;;;;;;;;;;5023459;28;20045;-73
2021/12/08 15:53:04;;;;;;;7.18;3.22;;;;;;;;;;5023275;28;20038;-73
2021/12/08 15:55:33;;;;;;;9.77;3.42;;;;;;;;;;5023676;28;20022;-72
2021/12/08 15:58:09;;;;;;;7.20;3.20;;;;;;;;;;5023350;28;20053;-71
2021/12/08 16:00:42;;;;;;;6.95;3.47;;;;;;;;;;5023314;28;20030;-73
2021/12/08 16:03:08;;;;;;;9.20;4.32;;;;;;;;;;5007503;28;20025;-73
2021/12/08 16:05:35;;;;;;;6.80;3.78;;;;;;;;;;5027125;28;20034;-72
2021/12/08 16:08:01;;;;;;;7.05;3.85;;;;;;;;;;5026950;28;20026;-74